Soaring Guidance
Issued by NWS Reno, NV

Home | Current Version | Previous Version | Text Only | Print | Product List | Glossary On
Versions: 1 2 3 4 5 6 7 8 9 10 11 12 13 14
000
UXUS97 KREV 021348
SRGREV

SOARING FORECAST
NATIONAL WEATHER SERVICE - RENO NV
700 AM PDT WED SEP 2 2015

THIS SOARING FORECAST IS FOR THE EASTERN SIERRA AND WESTERN NEVADA
WITH SPECIFIC INDICES FOR THE GREATER RENO AREA.

THIS FORECAST IS PREPARED DAILY BY 700 AM AND IS NOT UPDATED.

FOR CURRENT FLIGHT CONDITIONS...FORECASTS...AND ADVISORIES...ACCESS
YOUR LOCAL BRIEFING OUTLET OR FLIGHT SERVICE STATION.

*******************************************************************
FORECASTED LOCAL INDICES FOR RENO:        TODAY     YESTERDAY
FORECASTED MAX TEMP AT RENO (DEG F).....     85          92
FORECASTED TRIGGER TEMPERATURE (DEG F)..     74          77
   EXCEEDED YESTERDAY BY 1155 AM PDT
FORECASTED MAXIMUM ALTITUDE (FT MSL)....  12700       15800
FORECASTED SOARING INDEX (FPM)..........    621         954
FORECASTED K-INDEX.........VALID 18Z....      2          -5
FORECASTED K-INDEX.........VALID 00Z....     13           3
FORECASTED LIFTED INDEX....VALID 18Z....     10          12
FORECASTED LIFTED INDEX....VALID 00Z....      7           8

AFTERNOON WINDS ALOFT FORECAST
MSL (FT) WIND/TEMP
9000  2422/+11
10000 2224/+09
12000 2129/+06
14000 2130/+01
16000 2132/-04
18000 2236/-09
24000 2233/-20
30000 2222/-36
34000 2318/-45
39000 2421/-57

SLIDE MOUNTAIN DATA:
     DATE       TIME     TEMP  DEWPT   RH         WIND (MPH)
                        (F)   (F)           | DIR  SPEED GUST
2015-09-02    05:20      46    24     40    | 250   44   63
2015-09-02    05:00      45    25     45    | 252   43   57
2015-09-02    04:50      45    25     44    | 253   42   54
2015-09-02    04:30      45    24     42    | 249   42   53

RENO TAF FORECAST:
KRNO 021120Z 0212/0312 VRB04KT P6SM SKC
     FM021800 20010G20KT P6SM SCT220
     FM022100 26020G32KT P6SM FEW120 SCT200
     FM030200 29014G24KT P6SM SCT150
     FM030600 VRB03KT P6SM SKC

CARSON CITY TAF FORECAST:
KCXP 021120Z 0212/0312 VRB04KT P6SM SKC
     FM021900 26016G28KT P6SM FEW120 SCT220
     FM030300 26011KT P6SM SCT150
     FM030500 VRB04KT P6SM SKC

OUTLOOK FOR THE RENO-CARSON CITY-MINDEN AREA:
.THURSDAY...PARTLY CLOUDY. HIGHS 75 TO 80. SOUTHWEST WINDS UP TO
10 MPH INCREASING TO 15 TO 25 MPH WITH GUSTS UP TO 35 MPH IN THE
AFTERNOON.

SUNRISE AND SUNSET
SEPTEMBER  2 2015.....SUNRISE   628 AM PDT   SUNSET   729 PM PDT
SEPTEMBER  3 2015.....SUNRISE   629 AM PDT   SUNSET   727 PM PDT


USA.gov is the U.S. government's official web portal to all federal, state and local government web resources and services.